sensor_id;sensor_type;location;lat;lon;timestamp;temperature;humidity
54960;DHT22;40860;51.710;8.736;2023-06-19T00:01:16;23.20;51.40
54960;DHT22;40860;51.710;8.736;2023-06-19T00:05:19;23.20;51.10
54960;DHT22;40860;51.710;8.736;2023-06-19T00:09:26;23.20;51.00
54960;DHT22;40860;51.710;8.736;2023-06-19T00:13:28;23.20;50.70
54960;DHT22;40860;51.710;8.736;2023-06-19T00:17:31;23.20;50.70
54960;DHT22;40860;51.710;8.736;2023-06-19T00:21:34;23.20;50.90
54960;DHT22;40860;51.710;8.736;2023-06-19T00:25:40;23.20;51.00
54960;DHT22;40860;51.710;8.736;2023-06-19T00:29:43;23.20;51.00
54960;DHT22;40860;51.710;8.736;2023-06-19T00:33:46;23.20;50.80
54960;DHT22;40860;51.710;8.736;2023-06-19T00:37:49;23.20;50.80
54960;DHT22;40860;51.710;8.736;2023-06-19T00:41:54;23.20;50.90
54960;DHT22;40860;51.710;8.736;2023-06-19T00:45:57;23.20;50.90
54960;DHT22;40860;51.710;8.736;2023-06-19T00:50:00;23.20;50.90
54960;DHT22;40860;51.710;8.736;2023-06-19T00:54:04;23.20;50.90
54960;DHT22;40860;51.710;8.736;2023-06-19T00:58:08;23.20;50.90
54960;DHT22;40860;51.710;8.736;2023-06-19T01:02:12;23.20;51.00
54960;DHT22;40860;51.710;8.736;2023-06-19T01:06:21;23.10;51.00
54960;DHT22;40860;51.710;8.736;2023-06-19T01:10:27;23.10;51.20
54960;DHT22;40860;51.710;8.736;2023-06-19T01:14:36;23.10;51.50
54960;DHT22;40860;51.710;8.736;2023-06-19T01:18:41;23.10;51.70
54960;DHT22;40860;51.710;8.736;2023-06-19T01:22:45;23.00;52.00
54960;DHT22;40860;51.710;8.736;2023-06-19T01:26:48;23.00;52.30
54960;DHT22;40860;51.710;8.736;2023-06-19T01:30:52;23.00;52.50
54960;DHT22;40860;51.710;8.736;2023-06-19T01:34:58;23.00;52.80
54960;DHT22;40860;51.710;8.736;2023-06-19T01:39:05;23.00;52.90
54960;DHT22;40860;51.710;8.736;2023-06-19T01:43:10;22.90;53.00
54960;DHT22;40860;51.710;8.736;2023-06-19T01:47:13;22.90;53.00
54960;DHT22;40860;51.710;8.736;2023-06-19T01:51:21;22.90;52.80
54960;DHT22;40860;51.710;8.736;2023-06-19T01:55:25;22.90;52.80
54960;DHT22;40860;51.710;8.736;2023-06-19T01:59:28;22.90;52.70
54960;DHT22;40860;51.710;8.736;2023-06-19T02:03:31;22.90;52.90
54960;DHT22;40860;51.710;8.736;2023-06-19T02:07:34;22.80;53.30
54960;DHT22;40860;51.710;8.736;2023-06-19T02:11:38;22.70;53.50
54960;DHT22;40860;51.710;8.736;2023-06-19T02:15:41;22.70;54.00
54960;DHT22;40860;51.710;8.736;2023-06-19T02:19:44;22.60;54.00
54960;DHT22;40860;51.710;8.736;2023-06-19T02:23:47;22.60;53.60
54960;DHT22;40860;51.710;8.736;2023-06-19T02:27:51;22.60;53.90
54960;DHT22;40860;51.710;8.736;2023-06-19T02:31:55;22.50;53.70
54960;DHT22;40860;51.710;8.736;2023-06-19T02:35:58;22.50;53.50
54960;DHT22;40860;51.710;8.736;2023-06-19T02:40:01;22.50;53.70
54960;DHT22;40860;51.710;8.736;2023-06-19T02:44:08;22.50;53.60
54960;DHT22;40860;51.710;8.736;2023-06-19T02:48:11;22.50;53.60
54960;DHT22;40860;51.710;8.736;2023-06-19T02:52:14;22.60;54.30
54960;DHT22;40860;51.710;8.736;2023-06-19T02:56:17;22.50;54.60
54960;DHT22;40860;51.710;8.736;2023-06-19T03:00:21;22.50;54.20
54960;DHT22;40860;51.710;8.736;2023-06-19T03:04:25;22.50;54.20
54960;DHT22;40860;51.710;8.736;2023-06-19T03:08:30;22.50;54.10
54960;DHT22;40860;51.710;8.736;2023-06-19T03:12:33;22.50;54.10
54960;DHT22;40860;51.710;8.736;2023-06-19T03:16:37;22.50;54.00
54960;DHT22;40860;51.710;8.736;2023-06-19T03:20:41;22.50;54.10
54960;DHT22;40860;51.710;8.736;2023-06-19T03:24:44;22.50;53.90
54960;DHT22;40860;51.710;8.736;2023-06-19T03:28:52;22.60;54.00
54960;DHT22;40860;51.710;8.736;2023-06-19T03:32:58;22.60;54.00
54960;DHT22;40860;51.710;8.736;2023-06-19T03:37:15;22.60;54.10
54960;DHT22;40860;51.710;8.736;2023-06-19T03:41:18;22.60;54.20
54960;DHT22;40860;51.710;8.736;2023-06-19T03:45:21;22.60;54.10
54960;DHT22;40860;51.710;8.736;2023-06-19T03:49:25;22.60;54.20
54960;DHT22;40860;51.710;8.736;2023-06-19T03:53:28;22.60;55.00
54960;DHT22;40860;51.710;8.736;2023-06-19T03:57:31;22.50;57.20
54960;DHT22;40860;51.710;8.736;2023-06-19T04:01:34;22.30;59.40
54960;DHT22;40860;51.710;8.736;2023-06-19T04:05:38;22.20;59.90
54960;DHT22;40860;51.710;8.736;2023-06-19T04:09:46;22.10;60.90
54960;DHT22;40860;51.710;8.736;2023-06-19T04:13:49;22.00;62.60
54960;DHT22;40860;51.710;8.736;2023-06-19T04:17:51;22.00;67.00
54960;DHT22;40860;51.710;8.736;2023-06-19T04:21:56;21.80;69.00
54960;DHT22;40860;51.710;8.736;2023-06-19T04:25:59;21.70;70.10
54960;DHT22;40860;51.710;8.736;2023-06-19T04:30:03;21.70;70.60
54960;DHT22;40860;51.710;8.736;2023-06-19T04:34:08;21.60;74.40
54960;DHT22;40860;51.710;8.736;2023-06-19T04:38:12;21.50;73.40
54960;DHT22;40860;51.710;8.736;2023-06-19T04:42:17;21.50;74.90
54960;DHT22;40860;51.710;8.736;2023-06-19T04:46:21;21.60;74.40
54960;DHT22;40860;51.710;8.736;2023-06-19T04:50:24;21.60;75.10
54960;DHT22;40860;51.710;8.736;2023-06-19T04:54:28;21.70;72.00
54960;DHT22;40860;51.710;8.736;2023-06-19T04:58:34;21.90;69.70
54960;DHT22;40860;51.710;8.736;2023-06-19T05:02:37;22.10;67.70
54960;DHT22;40860;51.710;8.736;2023-06-19T05:06:40;22.20;67.10
54960;DHT22;40860;51.710;8.736;2023-06-19T05:10:45;22.30;65.40
54960;DHT22;40860;51.710;8.736;2023-06-19T05:14:48;22.40;64.60
54960;DHT22;40860;51.710;8.736;2023-06-19T05:18:51;22.50;64.40
54960;DHT22;40860;51.710;8.736;2023-06-19T05:22:54;22.50;64.60
54960;DHT22;40860;51.710;8.736;2023-06-19T05:26:58;22.60;64.30
54960;DHT22;40860;51.710;8.736;2023-06-19T05:31:01;22.70;64.60
54960;DHT22;40860;51.710;8.736;2023-06-19T05:35:06;22.80;64.50
54960;DHT22;40860;51.710;8.736;2023-06-19T05:39:09;22.90;65.40
54960;DHT22;40860;51.710;8.736;2023-06-19T05:43:14;22.90;64.50
54960;DHT22;40860;51.710;8.736;2023-06-19T05:47:19;23.00;65.50
54960;DHT22;40860;51.710;8.736;2023-06-19T05:51:23;23.00;64.90
54960;DHT22;40860;51.710;8.736;2023-06-19T05:55:26;23.10;64.50
54960;DHT22;40860;51.710;8.736;2023-06-19T05:59:30;23.20;64.50
54960;DHT22;40860;51.710;8.736;2023-06-19T06:03:33;23.30;64.90
54960;DHT22;40860;51.710;8.736;2023-06-19T06:07:37;23.30;64.40
54960;DHT22;40860;51.710;8.736;2023-06-19T06:11:42;23.40;64.80
54960;DHT22;40860;51.710;8.736;2023-06-19T06:15:46;23.40;65.40
54960;DHT22;40860;51.710;8.736;2023-06-19T06:19:49;23.30;66.00
54960;DHT22;40860;51.710;8.736;2023-06-19T06:23:52;23.50;66.30
54960;DHT22;40860;51.710;8.736;2023-06-19T06:27:58;23.50;66.70
54960;DHT22;40860;51.710;8.736;2023-06-19T06:32:07;23.50;67.30
54960;DHT22;40860;51.710;8.736;2023-06-19T06:36:10;23.50;67.20
54960;DHT22;40860;51.710;8.736;2023-06-19T06:40:30;23.50;67.60
54960;DHT22;40860;51.710;8.736;2023-06-19T06:44:33;23.60;67.60
54960;DHT22;40860;51.710;8.736;2023-06-19T06:48:37;23.70;67.70
54960;DHT22;40860;51.710;8.736;2023-06-19T06:52:41;23.70;67.90
54960;DHT22;40860;51.710;8.736;2023-06-19T06:56:44;23.80;68.90
54960;DHT22;40860;51.710;8.736;2023-06-19T07:00:49;23.80;68.70
54960;DHT22;40860;51.710;8.736;2023-06-19T07:04:55;23.90;68.20
54960;DHT22;40860;51.710;8.736;2023-06-19T07:08:58;23.90;68.60
54960;DHT22;40860;51.710;8.736;2023-06-19T07:13:00;23.90;68.00
54960;DHT22;40860;51.710;8.736;2023-06-19T07:17:04;23.80;68.40
54960;DHT22;40860;51.710;8.736;2023-06-19T07:21:12;23.90;68.90
54960;DHT22;40860;51.710;8.736;2023-06-19T07:25:15;24.10;68.80
54960;DHT22;40860;51.710;8.736;2023-06-19T07:29:18;25.40;66.80
54960;DHT22;40860;51.710;8.736;2023-06-19T07:33:20;27.00;61.50
54960;DHT22;40860;51.710;8.736;2023-06-19T07:37:25;28.00;58.70
54960;DHT22;40860;51.710;8.736;2023-06-19T07:41:28;28.00;57.20
54960;DHT22;40860;51.710;8.736;2023-06-19T07:45:31;27.50;58.00
54960;DHT22;40860;51.710;8.736;2023-06-19T07:49:36;27.40;58.30
54960;DHT22;40860;51.710;8.736;2023-06-19T07:53:40;27.30;58.50
54960;DHT22;40860;51.710;8.736;2023-06-19T07:57:45;27.10;59.50
54960;DHT22;40860;51.710;8.736;2023-06-19T08:01:47;27.40;59.00
54960;DHT22;40860;51.710;8.736;2023-06-19T08:05:51;27.40;58.80
54960;DHT22;40860;51.710;8.736;2023-06-19T08:09:55;27.10;59.00
54960;DHT22;40860;51.710;8.736;2023-06-19T08:14:13;27.30;59.50
54960;DHT22;40860;51.710;8.736;2023-06-19T08:18:16;27.80;58.50
54960;DHT22;40860;51.710;8.736;2023-06-19T08:22:19;27.30;59.00
54960;DHT22;40860;51.710;8.736;2023-06-19T08:26:24;27.80;58.40
54960;DHT22;40860;51.710;8.736;2023-06-19T08:30:27;27.60;58.30
54960;DHT22;40860;51.710;8.736;2023-06-19T08:34:30;26.70;59.60
54960;DHT22;40860;51.710;8.736;2023-06-19T08:38:33;26.00;61.10
54960;DHT22;40860;51.710;8.736;2023-06-19T08:42:37;25.90;62.40
54960;DHT22;40860;51.710;8.736;2023-06-19T08:46:41;26.00;62.10
54960;DHT22;40860;51.710;8.736;2023-06-19T08:50:44;26.10;61.70
54960;DHT22;40860;51.710;8.736;2023-06-19T08:54:47;26.20;61.90
54960;DHT22;40860;51.710;8.736;2023-06-19T08:58:51;26.60;60.80
54960;DHT22;40860;51.710;8.736;2023-06-19T09:02:59;26.70;60.30
54960;DHT22;40860;51.710;8.736;2023-06-19T09:07:07;26.40;59.20
54960;DHT22;40860;51.710;8.736;2023-06-19T09:11:18;26.20;59.60
54960;DHT22;40860;51.710;8.736;2023-06-19T09:15:27;26.10;59.80
54960;DHT22;40860;51.710;8.736;2023-06-19T09:19:33;26.30;58.90
54960;DHT22;40860;51.710;8.736;2023-06-19T09:23:36;26.20;58.70
54960;DHT22;40860;51.710;8.736;2023-06-19T09:27:41;26.40;58.80
54960;DHT22;40860;51.710;8.736;2023-06-19T09:31:45;26.50;57.80
54960;DHT22;40860;51.710;8.736;2023-06-19T09:35:49;26.00;58.10
54960;DHT22;40860;51.710;8.736;2023-06-19T09:39:54;26.10;58.60
54960;DHT22;40860;51.710;8.736;2023-06-19T09:43:58;26.10;58.60
54960;DHT22;40860;51.710;8.736;2023-06-19T09:48:04;26.00;58.50
54960;DHT22;40860;51.710;8.736;2023-06-19T09:52:26;26.00;58.80
54960;DHT22;40860;51.710;8.736;2023-06-19T09:56:36;25.80;59.10
54960;DHT22;40860;51.710;8.736;2023-06-19T10:00:40;26.10;59.30
54960;DHT22;40860;51.710;8.736;2023-06-19T10:04:45;25.80;58.80
54960;DHT22;40860;51.710;8.736;2023-06-19T10:08:51;25.70;59.10
54960;DHT22;40860;51.710;8.736;2023-06-19T10:12:55;25.90;58.60
54960;DHT22;40860;51.710;8.736;2023-06-19T10:17:08;26.20;58.50
54960;DHT22;40860;51.710;8.736;2023-06-19T10:21:17;26.30;57.80
54960;DHT22;40860;51.710;8.736;2023-06-19T10:25:21;26.40;57.70
54960;DHT22;40860;51.710;8.736;2023-06-19T10:29:25;26.40;57.40
54960;DHT22;40860;51.710;8.736;2023-06-19T10:33:30;26.30;58.00
54960;DHT22;40860;51.710;8.736;2023-06-19T10:37:35;26.60;57.90
54960;DHT22;40860;51.710;8.736;2023-06-19T10:41:40;26.90;56.90
54960;DHT22;40860;51.710;8.736;2023-06-19T10:45:42;26.90;56.50
54960;DHT22;40860;51.710;8.736;2023-06-19T10:49:46;26.70;56.80
54960;DHT22;40860;51.710;8.736;2023-06-19T10:53:50;26.80;56.50
54960;DHT22;40860;51.710;8.736;2023-06-19T10:57:52;26.80;56.70
54960;DHT22;40860;51.710;8.736;2023-06-19T11:01:55;27.20;56.40
54960;DHT22;40860;51.710;8.736;2023-06-19T11:05:58;27.30;56.00
54960;DHT22;40860;51.710;8.736;2023-06-19T11:10:04;27.30;56.10
54960;DHT22;40860;51.710;8.736;2023-06-19T11:14:07;27.20;57.00
54960;DHT22;40860;51.710;8.736;2023-06-19T11:18:11;27.60;56.20
54960;DHT22;40860;51.710;8.736;2023-06-19T11:22:14;27.90;55.60
54960;DHT22;40860;51.710;8.736;2023-06-19T11:26:18;27.40;55.60
54960;DHT22;40860;51.710;8.736;2023-06-19T11:30:30;27.20;56.10
54960;DHT22;40860;51.710;8.736;2023-06-19T11:34:35;27.40;56.50
54960;DHT22;40860;51.710;8.736;2023-06-19T11:38:38;27.30;56.10
54960;DHT22;40860;51.710;8.736;2023-06-19T11:42:48;27.50;56.30
54960;DHT22;40860;51.710;8.736;2023-06-19T11:46:56;27.70;56.00
54960;DHT22;40860;51.710;8.736;2023-06-19T11:51:00;28.30;55.30
54960;DHT22;40860;51.710;8.736;2023-06-19T11:55:03;28.30;55.00
54960;DHT22;40860;51.710;8.736;2023-06-19T11:59:08;28.30;54.00
54960;DHT22;40860;51.710;8.736;2023-06-19T12:03:10;28.40;53.80
54960;DHT22;40860;51.710;8.736;2023-06-19T12:07:13;28.70;53.90
54960;DHT22;40860;51.710;8.736;2023-06-19T12:11:17;29.20;53.00
54960;DHT22;40860;51.710;8.736;2023-06-19T12:15:21;29.10;52.70
54960;DHT22;40860;51.710;8.736;2023-06-19T12:19:25;28.90;53.00
54960;DHT22;40860;51.710;8.736;2023-06-19T12:23:29;28.70;53.10
54960;DHT22;40860;51.710;8.736;2023-06-19T12:27:32;28.70;53.40
54960;DHT22;40860;51.710;8.736;2023-06-19T12:31:36;28.90;53.30
54960;DHT22;40860;51.710;8.736;2023-06-19T12:35:40;29.10;52.70
54960;DHT22;40860;51.710;8.736;2023-06-19T12:39:43;29.10;52.10
54960;DHT22;40860;51.710;8.736;2023-06-19T12:43:46;29.30;51.60
54960;DHT22;40860;51.710;8.736;2023-06-19T12:47:50;29.40;51.80
54960;DHT22;40860;51.710;8.736;2023-06-19T12:51:57;29.80;51.20
54960;DHT22;40860;51.710;8.736;2023-06-19T12:56:00;29.70;50.30
54960;DHT22;40860;51.710;8.736;2023-06-19T13:00:10;29.30;50.50
54960;DHT22;40860;51.710;8.736;2023-06-19T13:04:15;29.10;51.00
54960;DHT22;40860;51.710;8.736;2023-06-19T13:08:19;29.10;50.90
54960;DHT22;40860;51.710;8.736;2023-06-19T13:12:22;29.30;51.10
54960;DHT22;40860;51.710;8.736;2023-06-19T13:16:25;29.80;51.10
54960;DHT22;40860;51.710;8.736;2023-06-19T13:20:47;30.20;50.30
54960;DHT22;40860;51.710;8.736;2023-06-19T13:24:51;30.70;50.20
54960;DHT22;40860;51.710;8.736;2023-06-19T13:28:54;30.70;49.40
54960;DHT22;40860;51.710;8.736;2023-06-19T13:33:00;30.60;48.70
54960;DHT22;40860;51.710;8.736;2023-06-19T13:37:07;30.20;49.50
54960;DHT22;40860;51.710;8.736;2023-06-19T13:41:10;30.40;49.50
54960;DHT22;40860;51.710;8.736;2023-06-19T13:45:13;30.60;48.80
54960;DHT22;40860;51.710;8.736;2023-06-19T13:49:16;30.60;49.20
54960;DHT22;40860;51.710;8.736;2023-06-19T13:53:20;30.60;49.00
54960;DHT22;40860;51.710;8.736;2023-06-19T13:57:24;30.90;48.70
54960;DHT22;40860;51.710;8.736;2023-06-19T14:01:27;31.10;48.50
54960;DHT22;40860;51.710;8.736;2023-06-19T14:05:30;31.20;48.10
54960;DHT22;40860;51.710;8.736;2023-06-19T14:09:35;31.50;48.10
54960;DHT22;40860;51.710;8.736;2023-06-19T14:13:38;31.40;47.50
54960;DHT22;40860;51.710;8.736;2023-06-19T14:17:41;31.40;47.70
54960;DHT22;40860;51.710;8.736;2023-06-19T14:21:44;31.50;47.40
54960;DHT22;40860;51.710;8.736;2023-06-19T14:25:48;31.60;47.00
54960;DHT22;40860;51.710;8.736;2023-06-19T14:29:51;31.20;47.40
54960;DHT22;40860;51.710;8.736;2023-06-19T14:33:55;31.10;47.40
54960;DHT22;40860;51.710;8.736;2023-06-19T14:37:58;31.10;47.40
54960;DHT22;40860;51.710;8.736;2023-06-19T14:42:02;30.70;47.30
54960;DHT22;40860;51.710;8.736;2023-06-19T14:46:05;30.40;47.70
54960;DHT22;40860;51.710;8.736;2023-06-19T14:50:08;30.30;47.80
54960;DHT22;40860;51.710;8.736;2023-06-19T14:54:11;29.60;48.80
54960;DHT22;40860;51.710;8.736;2023-06-19T14:58:16;29.40;49.40
54960;DHT22;40860;51.710;8.736;2023-06-19T15:02:19;29.70;48.50
54960;DHT22;40860;51.710;8.736;2023-06-19T15:06:22;30.00;48.80
54960;DHT22;40860;51.710;8.736;2023-06-19T15:10:24;30.40;48.10
54960;DHT22;40860;51.710;8.736;2023-06-19T15:14:29;30.60;47.50
54960;DHT22;40860;51.710;8.736;2023-06-19T15:18:32;30.90;47.10
54960;DHT22;40860;51.710;8.736;2023-06-19T15:22:36;31.10;47.40
54960;DHT22;40860;51.710;8.736;2023-06-19T15:26:39;31.30;47.00
54960;DHT22;40860;51.710;8.736;2023-06-19T15:30:43;30.60;47.00
54960;DHT22;40860;51.710;8.736;2023-06-19T15:34:46;30.60;47.50
54960;DHT22;40860;51.710;8.736;2023-06-19T15:38:50;31.00;47.20
54960;DHT22;40860;51.710;8.736;2023-06-19T15:42:53;31.30;46.30
54960;DHT22;40860;51.710;8.736;2023-06-19T15:46:57;31.50;45.90
54960;DHT22;40860;51.710;8.736;2023-06-19T15:51:01;31.70;45.50
54960;DHT22;40860;51.710;8.736;2023-06-19T15:55:05;30.80;46.00
54960;DHT22;40860;51.710;8.736;2023-06-19T15:59:08;30.60;46.30
54960;DHT22;40860;51.710;8.736;2023-06-19T16:03:13;30.70;46.10
54960;DHT22;40860;51.710;8.736;2023-06-19T16:07:16;30.70;47.10
54960;DHT22;40860;51.710;8.736;2023-06-19T16:11:19;30.60;46.10
54960;DHT22;40860;51.710;8.736;2023-06-19T16:15:22;30.60;45.90
54960;DHT22;40860;51.710;8.736;2023-06-19T16:19:30;30.70;46.50
54960;DHT22;40860;51.710;8.736;2023-06-19T16:23:33;30.70;46.30
54960;DHT22;40860;51.710;8.736;2023-06-19T16:27:37;30.70;45.90
54960;DHT22;40860;51.710;8.736;2023-06-19T16:31:40;30.60;46.40
54960;DHT22;40860;51.710;8.736;2023-06-19T16:35:49;30.40;46.30
54960;DHT22;40860;51.710;8.736;2023-06-19T16:39:52;30.40;46.30
54960;DHT22;40860;51.710;8.736;2023-06-19T16:43:54;30.50;46.80
54960;DHT22;40860;51.710;8.736;2023-06-19T16:47:57;30.50;45.90
54960;DHT22;40860;51.710;8.736;2023-06-19T16:52:02;30.50;46.00
54960;DHT22;40860;51.710;8.736;2023-06-19T16:56:05;30.40;45.90
54960;DHT22;40860;51.710;8.736;2023-06-19T17:00:09;30.30;46.40
54960;DHT22;40860;51.710;8.736;2023-06-19T17:04:13;30.20;46.60
54960;DHT22;40860;51.710;8.736;2023-06-19T17:08:17;29.80;47.00
54960;DHT22;40860;51.710;8.736;2023-06-19T17:12:20;29.50;47.40
54960;DHT22;40860;51.710;8.736;2023-06-19T17:16:23;29.30;47.80
54960;DHT22;40860;51.710;8.736;2023-06-19T17:20:26;29.00;48.10
54960;DHT22;40860;51.710;8.736;2023-06-19T17:24:30;28.90;48.50
54960;DHT22;40860;51.710;8.736;2023-06-19T17:28:33;28.80;48.90
54960;DHT22;40860;51.710;8.736;2023-06-19T17:32:36;28.50;49.60
54960;DHT22;40860;51.710;8.736;2023-06-19T17:36:39;28.20;50.00
54960;DHT22;40860;51.710;8.736;2023-06-19T17:40:44;27.90;50.40
54960;DHT22;40860;51.710;8.736;2023-06-19T17:44:47;27.70;50.70
54960;DHT22;40860;51.710;8.736;2023-06-19T17:48:49;27.70;51.30
54960;DHT22;40860;51.710;8.736;2023-06-19T17:52:52;27.70;51.10
54960;DHT22;40860;51.710;8.736;2023-06-19T17:56:56;27.60;51.00
54960;DHT22;40860;51.710;8.736;2023-06-19T18:01:00;27.60;51.30
54960;DHT22;40860;51.710;8.736;2023-06-19T18:05:03;27.50;51.70
54960;DHT22;40860;51.710;8.736;2023-06-19T18:09:06;27.40;51.40
54960;DHT22;40860;51.710;8.736;2023-06-19T18:13:11;27.40;51.80
54960;DHT22;40860;51.710;8.736;2023-06-19T18:17:14;27.30;51.60
54960;DHT22;40860;51.710;8.736;2023-06-19T18:21:17;27.20;51.80
54960;DHT22;40860;51.710;8.736;2023-06-19T18:25:20;27.10;52.00
54960;DHT22;40860;51.710;8.736;2023-06-19T18:29:24;27.00;52.20
54960;DHT22;40860;51.710;8.736;2023-06-19T18:33:27;26.90;52.30
54960;DHT22;40860;51.710;8.736;2023-06-19T18:37:30;26.80;52.50
54960;DHT22;40860;51.710;8.736;2023-06-19T18:41:33;26.70;52.80
54960;DHT22;40860;51.710;8.736;2023-06-19T18:45:37;26.60;53.00
54960;DHT22;40860;51.710;8.736;2023-06-19T18:49:40;26.50;53.00
54960;DHT22;40860;51.710;8.736;2023-06-19T18:53:43;26.30;53.80
54960;DHT22;40860;51.710;8.736;2023-06-19T18:57:47;26.20;53.70
54960;DHT22;40860;51.710;8.736;2023-06-19T19:01:51;26.10;53.60
54960;DHT22;40860;51.710;8.736;2023-06-19T19:05:55;26.00;54.10
54960;DHT22;40860;51.710;8.736;2023-06-19T19:09:57;25.90;54.40
54960;DHT22;40860;51.710;8.736;2023-06-19T19:14:00;25.70;54.90
54960;DHT22;40860;51.710;8.736;2023-06-19T19:18:05;25.70;54.80
54960;DHT22;40860;51.710;8.736;2023-06-19T19:22:10;25.60;55.30
54960;DHT22;40860;51.710;8.736;2023-06-19T19:26:13;25.50;55.70
54960;DHT22;40860;51.710;8.736;2023-06-19T19:30:16;25.50;55.80
54960;DHT22;40860;51.710;8.736;2023-06-19T19:34:21;25.40;55.80
54960;DHT22;40860;51.710;8.736;2023-06-19T19:38:27;25.30;56.10
54960;DHT22;40860;51.710;8.736;2023-06-19T19:42:30;25.20;56.50
54960;DHT22;40860;51.710;8.736;2023-06-19T19:46:33;25.00;57.30
54960;DHT22;40860;51.710;8.736;2023-06-19T19:50:37;24.80;57.70
54960;DHT22;40860;51.710;8.736;2023-06-19T19:54:40;24.60;57.60
54960;DHT22;40860;51.710;8.736;2023-06-19T19:58:43;24.60;57.50
54960;DHT22;40860;51.710;8.736;2023-06-19T20:02:47;24.60;57.70
54960;DHT22;40860;51.710;8.736;2023-06-19T20:06:51;24.50;58.50
54960;DHT22;40860;51.710;8.736;2023-06-19T20:10:54;24.30;58.90
54960;DHT22;40860;51.710;8.736;2023-06-19T20:14:57;24.20;58.90
54960;DHT22;40860;51.710;8.736;2023-06-19T20:19:00;24.30;58.60
54960;DHT22;40860;51.710;8.736;2023-06-19T20:23:05;24.20;58.80
54960;DHT22;40860;51.710;8.736;2023-06-19T20:27:14;24.10;59.40
54960;DHT22;40860;51.710;8.736;2023-06-19T20:31:19;23.90;60.30
54960;DHT22;40860;51.710;8.736;2023-06-19T20:35:23;23.80;60.30
54960;DHT22;40860;51.710;8.736;2023-06-19T20:39:27;23.80;60.80
54960;DHT22;40860;51.710;8.736;2023-06-19T20:43:33;23.70;61.10
54960;DHT22;40860;51.710;8.736;2023-06-19T20:47:37;23.60;62.10
54960;DHT22;40860;51.710;8.736;2023-06-19T20:51:40;23.40;63.10
54960;DHT22;40860;51.710;8.736;2023-06-19T20:55:44;23.20;63.90
54960;DHT22;40860;51.710;8.736;2023-06-19T20:59:47;23.20;64.20
54960;DHT22;40860;51.710;8.736;2023-06-19T21:03:51;23.20;64.20
54960;DHT22;40860;51.710;8.736;2023-06-19T21:07:54;23.20;64.60
54960;DHT22;40860;51.710;8.736;2023-06-19T21:11:59;23.10;65.00
54960;DHT22;40860;51.710;8.736;2023-06-19T21:16:05;23.00;65.50
54960;DHT22;40860;51.710;8.736;2023-06-19T21:20:09;23.00;66.50
54960;DHT22;40860;51.710;8.736;2023-06-19T21:24:14;22.90;67.10
54960;DHT22;40860;51.710;8.736;2023-06-19T21:28:20;22.80;67.80
54960;DHT22;40860;51.710;8.736;2023-06-19T21:32:23;22.80;68.40
54960;DHT22;40860;51.710;8.736;2023-06-19T21:36:27;22.70;69.00
54960;DHT22;40860;51.710;8.736;2023-06-19T21:40:30;22.70;69.10
54960;DHT22;40860;51.710;8.736;2023-06-19T21:44:36;22.60;69.70
54960;DHT22;40860;51.710;8.736;2023-06-19T21:48:40;22.60;69.50
54960;DHT22;40860;51.710;8.736;2023-06-19T21:52:45;22.50;69.70
54960;DHT22;40860;51.710;8.736;2023-06-19T21:56:53;22.50;70.10
54960;DHT22;40860;51.710;8.736;2023-06-19T22:01:00;22.40;71.00
54960;DHT22;40860;51.710;8.736;2023-06-19T22:05:04;22.40;70.60
54960;DHT22;40860;51.710;8.736;2023-06-19T22:09:10;22.30;71.10
54960;DHT22;40860;51.710;8.736;2023-06-19T22:13:13;22.20;71.90
54960;DHT22;40860;51.710;8.736;2023-06-19T22:17:18;22.20;72.30
54960;DHT22;40860;51.710;8.736;2023-06-19T22:21:21;22.20;72.50
54960;DHT22;40860;51.710;8.736;2023-06-19T22:25:24;22.10;72.80
54960;DHT22;40860;51.710;8.736;2023-06-19T22:29:27;22.00;73.10
54960;DHT22;40860;51.710;8.736;2023-06-19T22:33:31;22.00;73.40
54960;DHT22;40860;51.710;8.736;2023-06-19T22:37:35;22.00;74.20
54960;DHT22;40860;51.710;8.736;2023-06-19T22:41:41;22.00;74.00
54960;DHT22;40860;51.710;8.736;2023-06-19T22:45:45;21.90;73.60
54960;DHT22;40860;51.710;8.736;2023-06-19T22:49:53;21.90;73.60
54960;DHT22;40860;51.710;8.736;2023-06-19T22:53:56;21.90;73.80
54960;DHT22;40860;51.710;8.736;2023-06-19T22:57:59;21.90;73.70
54960;DHT22;40860;51.710;8.736;2023-06-19T23:02:02;21.90;73.60
54960;DHT22;40860;51.710;8.736;2023-06-19T23:06:07;21.90;73.40
54960;DHT22;40860;51.710;8.736;2023-06-19T23:10:11;21.90;73.30
54960;DHT22;40860;51.710;8.736;2023-06-19T23:14:14;21.90;73.30
54960;DHT22;40860;51.710;8.736;2023-06-19T23:18:17;21.90;73.20
54960;DHT22;40860;51.710;8.736;2023-06-19T23:22:25;21.90;73.20
54960;DHT22;40860;51.710;8.736;2023-06-19T23:26:29;21.90;73.40
54960;DHT22;40860;51.710;8.736;2023-06-19T23:30:32;21.90;73.60
54960;DHT22;40860;51.710;8.736;2023-06-19T23:34:35;21.80;73.70
54960;DHT22;40860;51.710;8.736;2023-06-19T23:38:39;21.80;74.00
54960;DHT22;40860;51.710;8.736;2023-06-19T23:42:42;21.80;74.00
54960;DHT22;40860;51.710;8.736;2023-06-19T23:46:45;21.80;74.00
54960;DHT22;40860;51.710;8.736;2023-06-19T23:50:48;21.80;74.20
54960;DHT22;40860;51.710;8.736;2023-06-19T23:54:52;21.70;74.30
54960;DHT22;40860;51.710;8.736;2023-06-19T23:58:55;21.70;74.60
